KMOP/MOP METAR and TAF weather

Enter ICAO airport designator
Station Type Date Time Source
KMOP METAR 2021/03/08 02:15 UTC NOAA

KMOP 080215Z AUTO 15003KT 10SM BKN050 OVC065 00/M09 A3037 RMK AO2 T00001092


Station Type Date Time Source
KMOP Decoded METAR 2021/03/08 02:15 UTC NOAA

Mount Pleasant, Mount Pleasant Municipal Airport, MI, United States (KMOP) 43-37N 84-44W
Mar 07, 2021 - 09:15 PM EST / 2021.03.08 0215 UTC
Wind: from the SSE (150 degrees) at 3 MPH (3 KT):0
Visibility: 10 mile(s):0
Sky conditions: overcast
Temperature: 32.0 F (0.0 C)
Dew Point: 15.4 F (-9.2 C)
Relative Humidity: 49%
Pressure (altimeter): 30.37 in. Hg (1028 hPa)
ob: KMOP 080215Z AUTO 15003KT 10SM BKN050 OVC065 00/M09 A3037 RMK AO2 T00001092
cycle: 2

Station Type Date Time Source
KMOP TAF UTC NOAA

Error!

Example: see airport list